Time;durP1;ratioP1;P1;durP2;ratioP2;P2;SDS_P1;SDS_P2;PMS_P1;PMS_P2;Temp;Humidity;BMP_temperature;BMP_pressure;BME280_temperature;BME280_humidity;BME280_pressure;Samples;Min_cycle;Max_cycle;Signal;HPM_P1;HPM_P2
2022/10/26 00:00:24;;;;;;;91.78;24.95;;;;;;;12.00;100.00;93109.31;4846666;29;20045;-77
2022/10/26 00:02:50;;;;;;;84.55;25.60;;;;;;;11.99;100.00;93118.25;4863171;29;20053;-76
2022/10/26 00:05:15;;;;;;;80.90;23.60;;;;;;;11.99;100.00;93124.28;4862661;29;20739;-76
2022/10/26 00:07:41;;;;;;;95.13;25.42;;;;;;;11.97;100.00;93115.13;4861596;29;20393;-77
2022/10/26 00:10:07;;;;;;;89.65;26.15;;;;;;;11.96;100.00;93121.44;4861404;29;20037;-77
2022/10/26 00:12:33;;;;;;;76.95;25.48;;;;;;;11.95;100.00;93112.75;4862497;29;20049;-77
2022/10/26 00:14:58;;;;;;;80.07;24.65;;;;;;;11.95;100.00;93109.38;4862840;29;20109;-77
2022/10/26 00:17:24;;;;;;;90.05;25.83;;;;;;;11.92;100.00;93107.31;4861329;29;20061;-77
2022/10/26 00:19:49;;;;;;;85.72;25.80;;;;;;;11.91;100.00;93105.72;4862596;29;20041;-77
2022/10/26 00:22:15;;;;;;;86.85;26.63;;;;;;;11.87;100.00;93106.31;4861236;29;20080;-77
2022/10/26 00:24:40;;;;;;;87.28;26.42;;;;;;;11.87;100.00;93110.75;4862487;29;20377;-77
2022/10/26 00:27:06;;;;;;;74.03;25.17;;;;;;;11.85;100.00;93112.84;4862392;29;20105;-77
2022/10/26 00:29:31;;;;;;;93.80;26.23;;;;;;;11.82;100.00;93118.63;4861164;29;20041;-77
2022/10/26 00:31:57;;;;;;;83.80;26.00;;;;;;;11.81;100.00;93122.34;4861561;29;20044;-76
2022/10/26 00:34:22;;;;;;;83.10;25.52;;;;;;;11.79;100.00;93117.34;4860957;29;20092;-76
2022/10/26 00:36:48;;;;;;;102.22;27.67;;;;;;;11.79;100.00;93113.97;4845659;29;20038;-76
2022/10/26 00:39:14;;;;;;;94.30;27.88;;;;;;;11.78;100.00;93096.66;4860982;29;20056;-77
2022/10/26 00:41:39;;;;;;;92.63;27.67;;;;;;;11.76;100.00;93085.69;4861049;29;20045;-77
2022/10/26 00:44:42;;;;;;;98.90;28.90;;;;;;;11.74;100.00;93091.19;4862022;29;20399;-76
2022/10/26 00:47:40;;;;;;;105.22;30.60;;;;;;;11.72;100.00;93103.03;4860180;29;20515;-77
2022/10/26 00:50:33;;;;;;;106.78;29.23;;;;;;;11.70;100.00;93100.66;4871277;29;20192;-77
2022/10/26 00:53:02;;;;;;;99.45;27.45;;;;;;;11.67;100.00;93102.00;4860931;29;20093;-77
2022/10/26 00:55:32;;;;;;;105.57;31.00;;;;;;;11.66;100.00;93099.66;4868941;29;20038;-76
2022/10/26 00:58:01;;;;;;;94.93;27.80;;;;;;;11.65;100.00;93103.34;4841999;29;20042;-76
2022/10/26 01:00:27;;;;;;;100.00;28.75;;;;;;;11.63;100.00;93093.13;4843146;29;20046;-77
2022/10/26 01:02:56;;;;;;;83.15;26.98;;;;;;;11.61;100.00;93081.34;4843153;29;20049;-77
2022/10/26 01:05:23;;;;;;;98.95;27.77;;;;;;;11.59;100.00;93083.47;4843217;29;20090;-76
2022/10/26 01:07:50;;;;;;;73.68;26.90;;;;;;;11.59;100.00;93086.09;4842032;29;20052;-77
2022/10/26 01:10:17;;;;;;;87.30;25.35;;;;;;;11.58;100.00;93081.91;4843370;29;20086;-76
2022/10/26 01:12:43;;;;;;;82.30;24.50;;;;;;;11.55;100.00;93085.06;4842512;29;20041;-75
2022/10/26 01:15:10;;;;;;;84.30;24.88;;;;;;;11.54;100.00;93091.38;4842233;29;20504;-77
2022/10/26 01:17:59;;;;;;;80.00;25.55;;;;;;;11.52;100.00;93083.78;4841725;29;20048;-75
2022/10/26 01:20:42;;;;;;;92.25;24.92;;;;;;;11.52;100.00;93094.28;4856599;29;20045;-77
2022/10/26 01:23:14;;;;;;;99.28;27.15;;;;;;;11.52;100.00;93083.00;4842809;29;20074;-78
2022/10/26 01:25:51;;;;;;;85.20;26.30;;;;;;;11.51;100.00;93081.47;4841662;29;20516;-77
2022/10/26 01:28:34;;;;;;;82.18;26.10;;;;;;;11.46;100.00;93064.72;4842134;29;20102;-78
2022/10/26 01:31:03;;;;;;;90.78;26.23;;;;;;;11.46;100.00;93061.31;4843251;29;20042;-77
2022/10/26 01:33:50;;;;;;;93.72;25.58;;;;;;;11.44;100.00;93060.81;4842755;29;20065;-77
2022/10/26 01:36:27;;;;;;;74.25;21.95;;;;;;;11.40;100.00;93068.44;4842634;29;20555;-77
2022/10/26 01:39:01;;;;;;;75.68;23.13;;;;;;;11.37;100.00;93071.63;4842513;29;20113;-78
2022/10/26 01:41:31;;;;;;;80.07;24.90;;;;;;;11.35;100.00;93071.13;4842561;29;20182;-77
2022/10/26 01:44:05;;;;;;;75.10;21.48;;;;;;;11.33;100.00;93075.06;4842932;29;20100;-76
2022/10/26 01:46:37;;;;;;;84.75;24.45;;;;;;;11.31;100.00;93077.97;4841109;29;20050;-78
2022/10/26 01:49:08;;;;;;;82.28;24.10;;;;;;;11.30;100.00;93088.72;4840925;29;20049;-78
2022/10/26 01:51:34;;;;;;;88.38;24.33;;;;;;;11.29;100.00;93089.78;4842576;29;20118;-77
2022/10/26 01:54:00;;;;;;;91.50;24.58;;;;;;;11.27;100.00;93086.66;4841539;29;20056;-77
2022/10/26 01:56:29;;;;;;;85.43;23.67;;;;;;;11.28;100.00;93088.19;4841329;29;20046;-77
2022/10/26 01:58:57;;;;;;;94.75;23.63;;;;;;;11.27;100.00;93076.94;4841071;29;20026;-77
2022/10/26 02:01:37;;;;;;;66.35;23.80;;;;;;;11.27;100.00;93076.94;4842527;29;20485;-76
2022/10/26 02:04:24;;;;;;;91.00;24.40;;;;;;;11.28;100.00;93078.53;4841454;29;20042;-78
2022/10/26 02:06:59;;;;;;;79.65;24.55;;;;;;;11.26;100.00;93083.25;4841383;29;20413;-77
2022/10/26 02:09:34;;;;;;;80.50;23.25;;;;;;;11.25;100.00;93090.31;4840672;29;20089;-77
2022/10/26 02:12:05;;;;;;;76.45;23.70;;;;;;;11.24;100.00;93080.91;4842140;29;20073;-77
2022/10/26 02:14:42;;;;;;;76.55;24.13;;;;;;;11.24;100.00;93088.75;4841096;29;20041;-77
2022/10/26 02:17:37;;;;;;;75.80;23.80;;;;;;;11.26;100.00;93083.25;4840778;29;20546;-78
2022/10/26 02:20:07;;;;;;;69.97;22.75;;;;;;;11.30;100.00;93086.09;4856260;29;20080;-78
2022/10/26 02:22:41;;;;;;;78.47;21.40;;;;;;;11.30;100.00;93065.91;4842476;29;20400;-78
2022/10/26 02:25:14;;;;;;;68.55;22.90;;;;;;;11.31;100.00;93048.34;4840840;29;20095;-78
2022/10/26 02:27:46;;;;;;;82.22;22.65;;;;;;;11.34;100.00;93053.03;4842356;29;20038;-77
2022/10/26 02:30:12;;;;;;;87.88;23.63;;;;;;;11.34;100.00;93040.72;4840843;29;20038;-77
2022/10/26 02:32:41;;;;;;;79.75;22.33;;;;;;;11.33;100.00;93044.41;4840712;29;20471;-77
2022/10/26 02:35:07;;;;;;;64.55;22.48;;;;;;;11.32;100.00;93044.66;4840991;29;20041;-77
2022/10/26 02:37:36;;;;;;;64.45;22.58;;;;;;;11.29;100.00;93047.84;4840848;29;20046;-77
2022/10/26 02:40:08;;;;;;;64.97;22.10;;;;;;;11.25;100.00;93055.47;4841796;29;20030;-78
2022/10/26 02:42:34;;;;;;;61.13;18.38;;;;;;;11.20;100.00;93055.53;4840933;29;20038;-77
2022/10/26 02:45:09;;;;;;;67.43;19.35;;;;;;;11.17;100.00;93061.31;4840598;29;20045;-78
2022/10/26 02:47:35;;;;;;;60.05;20.30;;;;;;;11.15;100.00;93058.19;4840860;29;20022;-78
2022/10/26 02:50:01;;;;;;;71.80;21.02;;;;;;;11.15;100.00;93066.06;4840340;29;20034;-77
2022/10/26 02:52:34;;;;;;;66.00;20.25;;;;;;;11.13;100.00;93055.06;4840882;29;20185;-77
2022/10/26 02:55:22;;;;;;;65.15;20.90;;;;;;;11.14;100.00;93048.75;4854246;29;20157;-78
2022/10/26 02:57:53;;;;;;;63.55;20.30;;;;;;;11.11;100.00;93046.69;4860499;29;20132;-78
2022/10/26 03:00:19;;;;;;;76.17;22.57;;;;;;;11.21;100.00;93049.22;4860049;29;20054;-77
2022/10/26 03:02:52;;;;;;;64.03;21.15;;;;;;;11.20;100.00;93055.53;4860073;29;20274;-77
2022/10/26 03:05:24;;;;;;;51.55;19.05;;;;;;;11.14;100.00;93051.38;4858940;29;20041;-77
2022/10/26 03:07:50;;;;;;;66.53;19.33;;;;;;;11.10;100.00;93055.59;4860295;29;20030;-78
2022/10/26 03:10:16;;;;;;;62.00;19.95;;;;;;;11.05;100.00;93064.28;4860615;29;20166;-77
2022/10/26 03:12:41;;;;;;;61.50;16.92;;;;;;;11.00;100.00;93065.09;4862499;29;20141;-77
2022/10/26 03:15:07;;;;;;;49.90;16.35;;;;;;;10.95;100.00;93054.66;4864012;29;20048;-78
2022/10/26 03:17:33;;;;;;;43.15;15.52;;;;;;;10.94;100.00;93053.13;4862009;29;20049;-77
2022/10/26 03:19:58;;;;;;;40.05;14.95;;;;;;;10.91;100.00;93056.28;4863220;29;20036;-77
2022/10/26 03:22:24;;;;;;;50.40;17.65;;;;;;;10.89;100.00;93055.75;4847307;29;20075;-77
2022/10/26 03:24:50;;;;;;;59.25;17.80;;;;;;;10.89;100.00;93066.22;4861957;29;20423;-77
2022/10/26 03:27:15;;;;;;;57.78;17.65;;;;;;;10.90;100.00;93070.44;4863018;29;20033;-77
2022/10/26 03:29:41;;;;;;;55.50;19.40;;;;;;;10.93;100.00;93077.72;4862775;29;20129;-77
2022/10/26 03:32:06;;;;;;;58.05;19.75;;;;;;;10.96;100.00;93077.19;4864816;29;20045;-77
2022/10/26 03:34:32;;;;;;;70.00;20.40;;;;;;;11.01;100.00;93071.13;4861583;29;20025;-78
2022/10/26 03:36:58;;;;;;;61.13;22.30;;;;;;;11.06;100.00;93071.09;4862964;29;20046;-76
2022/10/26 03:39:23;;;;;;;76.32;24.95;;;;;;;11.13;100.00;93074.19;4846530;29;20045;-77
2022/10/26 03:41:49;;;;;;;74.07;23.77;;;;;;;11.22;100.00;93075.16;4862733;29;20029;-77
2022/10/26 03:44:14;;;;;;;79.68;24.45;;;;;;;11.27;100.00;93078.78;4831036;29;20050;-78
2022/10/26 03:46:40;;;;;;;79.20;24.00;;;;;;;11.29;100.00;93085.31;4860197;29;20062;-78
2022/10/26 03:49:05;;;;;;;76.65;22.83;;;;;;;11.31;100.00;93082.44;4861554;29;20037;-77
2022/10/26 03:51:31;;;;;;;85.13;23.65;;;;;;;11.31;100.00;93077.97;4863380;29;20032;-77
2022/10/26 03:53:57;;;;;;;68.78;21.30;;;;;;;11.34;100.00;93092.34;4861257;29;20515;-77
2022/10/26 03:56:22;;;;;;;67.15;21.48;;;;;;;11.34;100.00;93095.75;4862595;29;20040;-78
2022/10/26 03:58:48;;;;;;;64.32;20.83;;;;;;;11.37;100.00;93091.78;4861069;29;20037;-77
2022/10/26 04:01:13;;;;;;;59.83;21.38;;;;;;;11.38;100.00;93088.91;4862640;29;20494;-78
2022/10/26 04:03:39;;;;;;;98.18;22.48;;;;;;;11.38;100.00;93081.03;4861426;29;20052;-78
2022/10/26 04:06:05;;;;;;;73.63;23.02;;;;;;;11.40;100.00;93088.63;4846736;29;20041;-77
2022/10/26 04:08:30;;;;;;;75.97;22.67;;;;;;;11.40;100.00;93094.66;4861755;29;20247;-78
2022/10/26 04:10:56;;;;;;;68.97;22.40;;;;;;;11.38;100.00;93094.16;4861514;29;20046;-78
2022/10/26 04:13:22;;;;;;;67.32;21.25;;;;;;;11.38;100.00;93096.75;4862953;29;20113;-78
2022/10/26 04:15:48;;;;;;;70.68;22.02;;;;;;;11.38;100.00;93098.59;4861694;29;20500;-77
2022/10/26 04:18:13;;;;;;;65.10;20.58;;;;;;;11.36;100.00;93096.25;4846099;29;20109;-77
2022/10/26 04:20:43;;;;;;;62.35;21.10;;;;;;;11.36;100.00;93104.13;4845783;29;20064;-78
2022/10/26 04:23:14;;;;;;;64.70;20.27;;;;;;;11.34;100.00;93101.00;4859856;29;20040;-78
2022/10/26 04:25:41;;;;;;;63.95;21.67;;;;;;;11.35;100.00;93093.91;4861945;29;20376;-77
2022/10/26 04:28:08;;;;;;;69.13;22.05;;;;;;;11.37;100.00;93097.03;4857372;29;20026;-78
2022/10/26 04:30:34;;;;;;;72.43;21.17;;;;;;;11.37;100.00;93107.50;4862713;29;20095;-77
2022/10/26 04:33:00;;;;;;;61.03;20.65;;;;;;;11.37;100.00;93095.22;4860891;29;20041;-76
2022/10/26 04:35:26;;;;;;;59.03;20.13;;;;;;;11.37;100.00;93103.06;4860861;29;20492;-76
2022/10/26 04:38:00;;;;;;;61.60;18.70;;;;;;;11.36;100.00;93100.72;4857010;29;20041;-76
2022/10/26 04:40:27;;;;;;;54.38;18.55;;;;;;;11.35;100.00;93105.19;4845610;29;20076;-75
2022/10/26 04:42:53;;;;;;;65.13;19.10;;;;;;;11.33;100.00;93094.19;4852891;29;20038;-77
2022/10/26 04:45:18;;;;;;;54.08;17.98;;;;;;;11.31;100.00;93098.94;4861351;29;20054;-78
2022/10/26 04:47:45;;;;;;;62.10;17.35;;;;;;;11.32;100.00;93097.84;4855492;29;20034;-78
2022/10/26 04:50:12;;;;;;;60.28;17.85;;;;;;;11.32;100.00;93094.47;4858330;29;20065;-78
2022/10/26 04:52:38;;;;;;;51.88;17.13;;;;;;;11.29;100.00;93080.06;4863386;29;20633;-77
2022/10/26 04:55:05;;;;;;;61.55;17.83;;;;;;;11.31;100.00;93083.19;4860499;29;20037;-78
2022/10/26 04:57:32;;;;;;;56.88;16.20;;;;;;;11.29;100.00;93093.19;4864276;29;20125;-77
2022/10/26 04:59:59;;;;;;;53.70;19.63;;;;;;;11.30;100.00;93089.50;4866852;29;20496;-77
2022/10/26 05:02:25;;;;;;;59.00;18.35;;;;;;;11.32;100.00;93084.75;4863949;29;20041;-78
2022/10/26 05:04:50;;;;;;;56.38;16.92;;;;;;;11.32;100.00;93084.75;4847582;29;20038;-78
2022/10/26 05:07:16;;;;;;;63.58;17.63;;;;;;;11.33;100.00;93086.34;4863126;29;20053;-77
2022/10/26 05:09:42;;;;;;;56.22;18.30;;;;;;;11.34;100.00;93077.41;4863790;29;20100;-78
2022/10/26 05:12:08;;;;;;;48.67;16.30;;;;;;;11.36;100.00;93074.50;4867229;29;20046;-79
2022/10/26 05:14:33;;;;;;;47.58;16.73;;;;;;;11.36;100.00;93070.03;4852863;29;20090;-79
2022/10/26 05:16:59;;;;;;;49.42;17.10;;;;;;;11.46;100.00;93069.97;4853203;29;20045;-78
2022/10/26 05:19:24;;;;;;;51.78;16.88;;;;;;;11.52;100.00;93072.53;4867233;29;20041;-77
2022/10/26 05:21:52;;;;;;;46.15;17.02;;;;;;;11.63;100.00;93066.13;4869921;29;20121;-78
2022/10/26 05:24:18;;;;;;;56.85;16.92;;;;;;;11.67;100.00;93059.28;4869014;29;20044;-78
2022/10/26 05:26:46;;;;;;;44.53;16.83;;;;;;;11.65;100.00;93064.00;4873456;29;20045;-78
2022/10/26 05:29:12;;;;;;;48.50;17.27;;;;;;;11.65;100.00;93051.66;4870989;29;20046;-78
2022/10/26 05:31:37;;;;;;;44.35;15.13;;;;;;;11.73;100.00;93041.63;4852954;29;20041;-78
2022/10/26 05:34:03;;;;;;;51.55;15.95;;;;;;;11.72;100.00;93032.97;4854572;29;20372;-78
2022/10/26 05:36:29;;;;;;;46.33;15.65;;;;;;;11.86;100.00;93038.34;4882826;29;20107;-79
2022/10/26 05:38:58;;;;;;;59.80;16.98;;;;;;;11.86;100.00;93035.72;4856990;29;20040;-78
2022/10/26 05:41:24;;;;;;;51.72;15.57;;;;;;;11.77;100.00;93043.41;4871576;29;20068;-79
2022/10/26 05:43:49;;;;;;;50.53;15.07;;;;;;;11.70;100.00;93042.97;4870119;29;20071;-79
2022/10/26 05:46:15;;;;;;;47.75;14.68;;;;;;;11.63;100.00;93055.63;4870519;29;20053;-79
2022/10/26 05:48:41;;;;;;;46.78;15.43;;;;;;;11.57;100.00;93061.97;4855293;29;20061;-79
2022/10/26 05:51:06;;;;;;;47.10;15.73;;;;;;;11.53;100.00;93037.38;4864771;29;20038;-79
2022/10/26 05:53:32;;;;;;;41.60;13.50;;;;;;;11.49;100.00;93039.00;4855727;29;20065;-78
2022/10/26 05:55:58;;;;;;;38.60;13.13;;;;;;;11.46;100.00;93043.75;4855429;29;20206;-78
2022/10/26 05:58:24;;;;;;;44.25;14.15;;;;;;;11.47;100.00;93036.66;4850086;29;20090;-79
2022/10/26 06:01:25;;;;;;;38.20;12.45;;;;;;;11.60;100.00;93033.38;4848648;29;20029;-79
2022/10/26 06:04:10;;;;;;;39.75;13.60;;;;;;;11.67;100.00;93040.91;4866684;29;20037;-78
2022/10/26 06:06:43;;;;;;;47.38;13.35;;;;;;;11.69;100.00;93057.16;4866544;29;20033;-78
2022/10/26 06:09:10;;;;;;;35.13;13.02;;;;;;;11.64;100.00;93065.06;4863352;29;20053;-79
2022/10/26 06:11:42;;;;;;;46.00;12.77;;;;;;;11.61;100.00;93083.97;4870431;29;20114;-78
2022/10/26 06:14:12;;;;;;;36.95;12.18;;;;;;;11.64;100.00;93092.09;4866978;29;20033;-78
2022/10/26 06:16:49;;;;;;;41.95;15.23;;;;;;;11.74;100.00;93099.06;4867177;29;20132;-78
2022/10/26 06:19:35;;;;;;;45.33;15.50;;;;;;;11.69;100.00;93088.63;4868520;29;20496;-78
2022/10/26 06:22:12;;;;;;;51.58;14.60;;;;;;;11.66;100.00;93083.91;4867905;29;20060;-78
2022/10/26 06:24:50;;;;;;;43.60;13.95;;;;;;;11.71;100.00;93081.25;4852088;29;20040;-78
2022/10/26 06:27:22;;;;;;;36.08;13.52;;;;;;;11.71;100.00;93086.50;4848005;29;20038;-78
2022/10/26 06:29:54;;;;;;;47.83;13.02;;;;;;;11.91;100.00;93085.53;4848174;29;20042;-77
2022/10/26 06:32:22;;;;;;;37.13;12.48;;;;;;;12.22;100.00;93091.19;4855018;29;20038;-78
2022/10/26 06:34:50;;;;;;;37.92;12.27;;;;;;;12.54;100.00;93097.66;4867828;29;20404;-79
2022/10/26 06:37:20;;;;;;;53.95;14.55;;;;;;;12.99;100.00;93107.78;4867259;29;20045;-78
2022/10/26 06:39:48;;;;;;;42.28;13.18;;;;;;;13.40;100.00;93100.09;4849701;29;20117;-78
2022/10/26 06:42:14;;;;;;;43.78;15.32;;;;;;;13.80;100.00;93100.47;4851683;29;20050;-78
2022/10/26 06:44:40;;;;;;;38.58;13.48;;;;;;;14.19;100.00;93101.09;4844900;29;20066;-78
2022/10/26 06:47:13;;;;;;;46.03;14.18;;;;;;;14.58;100.00;93105.84;4846987;29;20398;-79
2022/10/26 06:49:59;;;;;;;36.83;14.02;;;;;;;15.09;100.00;93125.84;4849127;29;20041;-79
2022/10/26 06:52:25;;;;;;;38.92;13.45;;;;;;;15.60;100.00;93124.69;4851254;29;20113;-79
2022/10/26 06:54:53;;;;;;;34.42;12.77;;;;;;;16.12;100.00;93118.13;4843941;29;20401;-78
2022/10/26 06:57:23;;;;;;;42.25;12.73;;;;;;;16.58;100.00;93128.22;4845147;29;20046;-77
2022/10/26 06:59:52;;;;;;;45.60;14.27;;;;;;;16.76;100.00;93138.84;4844966;29;20089;-78
2022/10/26 07:02:19;;;;;;;42.88;12.30;;;;;;;17.14;100.00;93131.13;4844496;29;20101;-78
2022/10/26 07:04:45;;;;;;;45.95;12.80;;;;;;;17.55;99.30;93132.50;4859379;29;20045;-77
2022/10/26 07:07:13;;;;;;;44.95;14.15;;;;;;;17.89;97.07;93133.56;4858915;29;20038;-76
2022/10/26 07:09:38;;;;;;;39.92;13.95;;;;;;;18.49;92.08;93135.25;4845497;29;20438;-77
2022/10/26 07:12:04;;;;;;;49.40;14.15;;;;;;;18.89;87.59;93136.75;4844798;29;20048;-78
2022/10/26 07:14:29;;;;;;;52.33;15.30;;;;;;;19.38;87.54;93144.22;4851032;29;20038;-79
2022/10/26 07:16:55;;;;;;;47.75;13.93;;;;;;;19.72;86.35;93157.25;4849377;29;20105;-78
2022/10/26 07:19:21;;;;;;;43.92;14.10;;;;;;;19.26;84.80;93161.66;4848109;29;20056;-78
2022/10/26 07:21:47;;;;;;;37.35;12.63;;;;;;;18.55;87.92;93164.97;4853862;29;20033;-77
2022/10/26 07:24:13;;;;;;;39.38;13.27;;;;;;;18.01;90.60;93159.41;4852676;29;20039;-77
2022/10/26 07:26:38;;;;;;;37.63;13.27;;;;;;;17.22;95.16;93156.78;4867653;29;20500;-79
2022/10/26 07:29:04;;;;;;;43.45;13.88;;;;;;;16.76;98.86;93150.19;4866800;29;20049;-79
2022/10/26 07:31:29;;;;;;;42.50;13.32;;;;;;;17.10;99.26;93154.00;4867607;29;20136;-78
2022/10/26 07:33:55;;;;;;;37.95;13.10;;;;;;;17.22;98.76;93161.31;4866322;29;20049;-79
2022/10/26 07:36:21;;;;;;;37.35;12.45;;;;;;;17.04;97.65;93166.63;4866879;29;20089;-79
2022/10/26 07:38:50;;;;;;;45.00;12.45;;;;;;;16.92;100.00;93163.00;4867058;29;20042;-78
2022/10/26 07:41:16;;;;;;;37.60;12.43;;;;;;;17.87;99.69;93165.66;4867798;29;20041;-79
2022/10/26 07:43:44;;;;;;;37.30;11.77;;;;;;;18.67;93.08;93159.03;4867176;29;20044;-78
2022/10/26 07:46:09;;;;;;;34.60;11.95;;;;;;;19.48;87.57;93154.47;4867702;29;20045;-79
2022/10/26 07:48:35;;;;;;;35.28;12.00;;;;;;;20.05;76.59;93150.38;4867051;29;20124;-78
2022/10/26 07:51:01;;;;;;;39.13;10.65;;;;;;;19.82;81.85;93150.75;4879906;29;20531;-77
2022/10/26 07:53:27;;;;;;;37.58;10.70;;;;;;;18.65;90.96;93166.53;4867974;29;20086;-78
2022/10/26 07:55:56;;;;;;;30.95;9.73;;;;;;;18.74;92.48;93169.91;4866445;29;20037;-78
2022/10/26 07:58:24;;;;;;;27.55;10.45;;;;;;;18.63;88.15;93168.72;4882072;29;20079;-78
2022/10/26 08:00:54;;;;;;;24.65;10.23;;;;;;;18.76;91.65;93177.53;4869805;29;20527;-78
2022/10/26 08:03:20;;;;;;;27.38;9.88;;;;;;;19.79;87.22;93171.88;4881685;29;20098;-78
2022/10/26 08:05:50;;;;;;;35.75;10.45;;;;;;;20.07;84.76;93169.44;4863298;29;20033;-78
2022/10/26 08:08:18;;;;;;;30.50;9.77;;;;;;;20.22;83.26;93170.66;4848663;29;20068;-78
2022/10/26 08:10:45;;;;;;;27.83;10.40;;;;;;;20.87;79.27;93168.97;4848991;29;20069;-78
2022/10/26 08:13:11;;;;;;;32.92;10.13;;;;;;;20.57;79.53;93171.84;4849743;29;20041;-78
2022/10/26 08:15:37;;;;;;;30.83;9.52;;;;;;;19.46;84.08;93172.59;4850978;29;20034;-79
2022/10/26 08:18:03;;;;;;;29.27;10.10;;;;;;;19.37;85.89;93177.19;4833327;29;20034;-78
2022/10/26 08:20:29;;;;;;;28.52;9.32;;;;;;;19.39;85.60;93180.31;4846713;29;20053;-79
2022/10/26 08:22:58;;;;;;;33.25;10.68;;;;;;;19.39;85.79;93175.78;4862131;29;20477;-79
2022/10/26 08:25:25;;;;;;;32.10;9.60;;;;;;;19.34;81.82;93166.13;4848070;29;20042;-79
2022/10/26 08:27:50;;;;;;;31.33;10.77;;;;;;;19.28;82.86;93175.38;4863926;29;20022;-77
2022/10/26 08:30:16;;;;;;;28.25;9.48;;;;;;;19.30;86.76;93181.16;4849931;29;20136;-78
2022/10/26 08:32:42;;;;;;;27.63;9.15;;;;;;;19.71;89.02;93176.94;4867107;29;20480;-78
2022/10/26 08:35:09;;;;;;;35.53;10.25;;;;;;;19.88;84.93;93177.88;4865555;29;20037;-76
2022/10/26 08:37:34;;;;;;;28.38;10.90;;;;;;;19.25;86.90;93184.00;4861152;29;20037;-80
2022/10/26 08:40:02;;;;;;;28.10;10.32;;;;;;;18.82;91.10;93190.31;4849151;29;20042;-82
2022/10/26 08:42:36;;;;;;;38.03;11.38;;;;;;;18.99;89.11;93191.34;4862659;29;20037;-81
2022/10/26 08:45:13;;;;;;;34.28;10.80;;;;;;;19.62;92.14;93186.06;4849584;29;20141;-81
2022/10/26 08:47:45;;;;;;;35.22;10.27;;;;;;;19.74;86.70;93191.44;4856050;29;20488;-81
2022/10/26 08:50:46;;;;;;;24.02;10.02;;;;;;;20.04;81.95;93192.13;4854253;29;20033;-82
2022/10/26 08:53:31;;;;;;;35.28;10.85;;;;;;;19.76;85.26;93187.34;4842010;29;20510;-81
2022/10/26 08:56:20;;;;;;;33.15;10.05;;;;;;;19.80;84.38;93192.03;4847383;29;20067;-80
2022/10/26 08:58:52;;;;;;;32.78;11.05;;;;;;;19.56;87.43;93196.09;4859190;29;20033;-80
2022/10/26 09:01:17;;;;;;;25.95;9.93;;;;;;;19.29;87.57;93195.50;4863829;29;20049;-80
2022/10/26 09:03:43;;;;;;;33.45;10.85;;;;;;;18.96;91.13;93199.91;4856931;29;20052;-80
2022/10/26 09:06:27;;;;;;;33.85;11.68;;;;;;;18.73;92.50;93208.91;4853777;29;20038;-80
2022/10/26 09:09:27;;;;;;;35.92;11.27;;;;;;;18.57;92.81;93205.22;4849278;29;20407;-80
2022/10/26 09:12:09;;;;;;;36.80;11.93;;;;;;;18.60;93.24;93206.44;4842231;29;20136;-80
2022/10/26 09:15:07;;;;;;;24.70;9.48;;;;;;;18.81;85.49;93202.03;4854670;29;20048;-81
2022/10/26 09:18:05;;;;;;;32.42;10.52;;;;;;;18.89;82.52;93197.78;4862016;29;20081;-79
2022/10/26 09:21:29;;;;;;;28.38;10.05;;;;;;;19.26;80.86;93198.03;4843942;29;20389;-80
2022/10/26 09:24:03;;;;;;;21.67;9.05;;;;;;;19.51;81.41;93202.38;4779098;29;20457;-80
2022/10/26 09:26:39;;;;;;;28.75;10.32;;;;;;;19.38;88.46;93199.97;4857758;29;20042;-80
2022/10/26 09:29:10;;;;;;;23.10;10.30;;;;;;;19.08;92.20;93211.41;4861439;29;20377;-80
2022/10/26 09:31:42;;;;;;;36.20;11.52;;;;;;;18.77;89.11;93211.72;4855860;29;20514;-80
2022/10/26 09:34:17;;;;;;;37.22;10.52;;;;;;;18.81;87.77;93210.00;4873503;29;20056;-82
2022/10/26 09:36:43;;;;;;;27.27;9.93;;;;;;;18.91;88.45;93206.97;4859411;29;20507;-80
2022/10/26 09:39:25;;;;;;;33.75;9.65;;;;;;;18.92;87.43;93203.22;4851004;29;20133;-80
2022/10/26 09:42:10;;;;;;;33.45;9.98;;;;;;;18.90;84.71;93204.63;4859004;29;20494;-80
2022/10/26 09:44:47;;;;;;;33.03;10.23;;;;;;;19.16;88.38;93212.44;4855600;29;20393;-80
2022/10/26 09:47:33;;;;;;;27.52;9.48;;;;;;;18.97;91.51;93214.75;4860491;29;20526;-81
2022/10/26 09:50:09;;;;;;;24.77;9.65;;;;;;;19.05;92.95;93212.06;4857766;29;20038;-80
2022/10/26 09:52:34;;;;;;;35.35;11.98;;;;;;;18.53;91.75;93206.97;4856835;29;20358;-80
2022/10/26 09:55:00;;;;;;;33.88;10.15;;;;;;;18.41;88.69;93210.25;4858613;29;20044;-80
2022/10/26 09:57:26;;;;;;;28.27;10.02;;;;;;;18.74;88.90;93215.00;4855794;29;20082;-81
2022/10/26 09:59:54;;;;;;;29.73;9.60;;;;;;;19.09;87.71;93214.84;4865476;29;20128;-81
2022/10/26 10:02:33;;;;;;;33.70;10.00;;;;;;;19.22;83.50;93213.81;4858285;29;20040;-80
2022/10/26 10:04:59;;;;;;;31.05;10.50;;;;;;;19.17;88.07;93211.34;4856347;29;20038;-79
2022/10/26 10:07:25;;;;;;;34.53;10.38;;;;;;;19.33;90.45;93212.34;4865698;29;20046;-80
2022/10/26 10:10:16;;;;;;;28.90;10.60;;;;;;;19.08;92.85;93216.72;4856306;29;20385;-81
2022/10/26 10:12:42;;;;;;;31.08;10.77;;;;;;;19.13;92.15;93223.72;4856189;29;20044;-80
2022/10/26 10:15:24;;;;;;;26.10;9.07;;;;;;;19.18;87.81;93220.88;4856144;29;20050;-80
2022/10/26 10:17:51;;;;;;;18.02;7.60;;;;;;;18.89;86.67;93214.47;4877765;29;20038;-82
2022/10/26 10:20:20;;;;;;;30.67;9.65;;;;;;;19.34;88.57;93210.47;4861181;29;20061;-80
2022/10/26 10:23:23;;;;;;;23.95;8.60;;;;;;;19.04;89.24;93220.31;4860848;29;20044;-80
2022/10/26 10:25:58;;;;;;;33.60;10.70;;;;;;;19.10;84.27;93219.81;4848966;29;20122;-82
2022/10/26 10:28:26;;;;;;;27.08;9.18;;;;;;;19.22;85.50;93216.47;4861011;29;20041;-82
2022/10/26 10:31:00;;;;;;;27.23;9.43;;;;;;;19.04;86.50;93217.69;4860184;29;20038;-83
2022/10/26 10:33:39;;;;;;;24.02;9.27;;;;;;;18.85;90.96;93226.81;4860728;29;20097;-82
2022/10/26 10:36:09;;;;;;;28.08;9.68;;;;;;;18.95;86.99;93222.25;4854778;29;20033;-82
2022/10/26 10:38:53;;;;;;;22.42;9.00;;;;;;;18.89;82.47;93226.94;4865033;29;20425;-80
2022/10/26 10:41:25;;;;;;;32.10;9.05;;;;;;;19.26;83.80;93216.63;4865888;29;20041;-82
2022/10/26 10:43:59;;;;;;;24.90;9.73;;;;;;;19.52;87.18;93219.88;4843883;29;20049;-82
2022/10/26 10:46:26;;;;;;;33.83;9.95;;;;;;;19.29;90.68;93222.03;4866085;29;20082;-82
2022/10/26 10:49:05;;;;;;;22.42;10.57;;;;;;;19.06;90.58;93220.78;4861726;29;20093;-81
2022/10/26 10:51:38;;;;;;;21.40;9.65;;;;;;;18.97;90.86;93225.38;4875437;29;20037;-81
2022/10/26 10:54:06;;;;;;;21.40;10.70;;;;;;;18.92;89.63;93231.63;4849189;29;20037;-82
2022/10/26 10:56:37;;;;;;;28.58;10.55;;;;;;;18.90;88.65;93225.88;4874550;29;20040;-82
2022/10/26 10:59:15;;;;;;;24.95;9.25;;;;;;;19.21;82.62;93230.84;4859107;29;20480;-82
2022/10/26 11:01:52;;;;;;;26.60;9.07;;;;;;;19.52;84.81;93224.38;4855043;29;20045;-82
2022/10/26 11:04:41;;;;;;;23.30;9.55;;;;;;;19.63;80.40;93216.81;4859833;29;20037;-82
2022/10/26 11:07:10;;;;;;;32.38;9.10;;;;;;;19.70;72.10;93214.44;4864400;29;20112;-82
2022/10/26 11:09:39;;;;;;;24.23;9.60;;;;;;;19.50;78.86;93213.34;4853076;29;20297;-83
2022/10/26 11:12:31;;;;;;;25.85;8.48;;;;;;;20.03;80.04;93211.03;4858740;29;20058;-83
2022/10/26 11:15:20;;;;;;;22.88;9.82;;;;;;;20.23;85.08;93202.25;4849596;29;20033;-80
2022/10/26 11:18:03;;;;;;;25.55;9.50;;;;;;;19.98;85.88;93200.63;4857140;29;20102;-80
2022/10/26 11:20:31;;;;;;;26.45;8.95;;;;;;;19.89;85.00;93200.69;4860865;29;20034;-81
2022/10/26 11:23:20;;;;;;;25.15;9.77;;;;;;;19.48;86.13;93199.59;4858442;29;20042;-81
2022/10/26 11:25:51;;;;;;;30.75;9.65;;;;;;;18.97;89.92;93204.13;4857958;29;20042;-81
2022/10/26 11:28:41;;;;;;;22.80;9.40;;;;;;;19.14;90.75;93209.34;4842561;29;20038;-81
2022/10/26 11:31:13;;;;;;;28.20;9.38;;;;;;;19.26;88.06;93206.78;4842503;29;20133;-81